sensor_id;sensor_type;location;lat;lon;timestamp;P1;durP1;ratioP1;P2;durP2;ratioP2
36691;SDS011;22678;52.052;4.242;2023-03-31T00:02:01;12.18;;;1.77;;
36691;SDS011;22678;52.052;4.242;2023-03-31T00:04:37;12.90;;;1.83;;
36691;SDS011;22678;52.052;4.242;2023-03-31T00:07:04;9.70;;;1.77;;
36691;SDS011;22678;52.052;4.242;2023-03-31T00:09:30;9.32;;;3.85;;
36691;SDS011;22678;52.052;4.242;2023-03-31T00:11:57;14.50;;;2.85;;
36691;SDS011;22678;52.052;4.242;2023-03-31T00:14:22;12.07;;;2.15;;
36691;SDS011;22678;52.052;4.242;2023-03-31T00:16:48;19.67;;;3.25;;
36691;SDS011;22678;52.052;4.242;2023-03-31T00:19:13;10.45;;;1.98;;
36691;SDS011;22678;52.052;4.242;2023-03-31T00:21:46;14.18;;;3.42;;
36691;SDS011;22678;52.052;4.242;2023-03-31T00:24:13;10.45;;;2.53;;
36691;SDS011;22678;52.052;4.242;2023-03-31T00:26:40;14.63;;;2.60;;
36691;SDS011;22678;52.052;4.242;2023-03-31T00:29:06;14.85;;;2.90;;
36691;SDS011;22678;52.052;4.242;2023-03-31T00:31:33;22.70;;;3.33;;
36691;SDS011;22678;52.052;4.242;2023-03-31T00:33:59;13.15;;;3.15;;
36691;SDS011;22678;52.052;4.242;2023-03-31T00:36:25;8.57;;;1.67;;
36691;SDS011;22678;52.052;4.242;2023-03-31T00:39:00;6.18;;;2.65;;
36691;SDS011;22678;52.052;4.242;2023-03-31T00:41:36;9.88;;;2.50;;
36691;SDS011;22678;52.052;4.242;2023-03-31T00:44:10;13.77;;;3.10;;
36691;SDS011;22678;52.052;4.242;2023-03-31T00:49:15;7.80;;;1.17;;
36691;SDS011;22678;52.052;4.242;2023-03-31T00:51:47;9.60;;;2.80;;
36691;SDS011;22678;52.052;4.242;2023-03-31T00:54:16;7.95;;;1.42;;
36691;SDS011;22678;52.052;4.242;2023-03-31T00:56:43;8.70;;;1.08;;
36691;SDS011;22678;52.052;4.242;2023-03-31T00:59:12;13.00;;;2.53;;
36691;SDS011;22678;52.052;4.242;2023-03-31T01:01:39;13.82;;;2.28;;
36691;SDS011;22678;52.052;4.242;2023-03-31T01:04:09;12.70;;;1.73;;
36691;SDS011;22678;52.052;4.242;2023-03-31T01:06:38;12.27;;;2.17;;
36691;SDS011;22678;52.052;4.242;2023-03-31T01:09:14;14.68;;;5.70;;
36691;SDS011;22678;52.052;4.242;2023-03-31T01:11:40;10.48;;;3.33;;
36691;SDS011;22678;52.052;4.242;2023-03-31T01:14:07;11.95;;;2.42;;
36691;SDS011;22678;52.052;4.242;2023-03-31T01:16:33;12.10;;;2.33;;
36691;SDS011;22678;52.052;4.242;2023-03-31T01:18:59;5.72;;;2.20;;
36691;SDS011;22678;52.052;4.242;2023-03-31T01:30:02;14.20;;;2.72;;
36691;SDS011;22678;52.052;4.242;2023-03-31T01:41:44;15.40;;;2.47;;
36691;SDS011;22678;52.052;4.242;2023-03-31T01:55:21;11.43;;;1.38;;
36691;SDS011;22678;52.052;4.242;2023-03-31T01:57:55;10.25;;;0.80;;
36691;SDS011;22678;52.052;4.242;2023-03-31T02:00:30;13.02;;;3.17;;
36691;SDS011;22678;52.052;4.242;2023-03-31T02:03:07;14.20;;;2.60;;
36691;SDS011;22678;52.052;4.242;2023-03-31T02:05:37;10.77;;;1.38;;
36691;SDS011;22678;52.052;4.242;2023-03-31T02:08:12;11.10;;;1.27;;
36691;SDS011;22678;52.052;4.242;2023-03-31T02:10:43;10.30;;;1.70;;
36691;SDS011;22678;52.052;4.242;2023-03-31T02:13:10;14.93;;;2.67;;
36691;SDS011;22678;52.052;4.242;2023-03-31T02:15:39;10.70;;;1.85;;
36691;SDS011;22678;52.052;4.242;2023-03-31T02:18:08;13.27;;;2.88;;
36691;SDS011;22678;52.052;4.242;2023-03-31T02:20:37;19.98;;;2.75;;
36691;SDS011;22678;52.052;4.242;2023-03-31T02:23:06;10.98;;;1.70;;
36691;SDS011;22678;52.052;4.242;2023-03-31T02:25:35;11.75;;;1.67;;
36691;SDS011;22678;52.052;4.242;2023-03-31T02:28:08;7.20;;;1.13;;
36691;SDS011;22678;52.052;4.242;2023-03-31T02:30:40;11.80;;;1.30;;
36691;SDS011;22678;52.052;4.242;2023-03-31T02:33:13;5.38;;;1.20;;
36691;SDS011;22678;52.052;4.242;2023-03-31T02:35:40;13.60;;;3.53;;
36691;SDS011;22678;52.052;4.242;2023-03-31T02:38:06;9.70;;;3.05;;
36691;SDS011;22678;52.052;4.242;2023-03-31T02:40:32;14.35;;;3.30;;
36691;SDS011;22678;52.052;4.242;2023-03-31T02:42:57;11.18;;;1.65;;
36691;SDS011;22678;52.052;4.242;2023-03-31T02:48:07;9.70;;;1.80;;
36691;SDS011;22678;52.052;4.242;2023-03-31T02:51:00;11.38;;;2.05;;
36691;SDS011;22678;52.052;4.242;2023-03-31T02:53:46;10.77;;;1.58;;
36691;SDS011;22678;52.052;4.242;2023-03-31T02:56:29;6.32;;;2.00;;
36691;SDS011;22678;52.052;4.242;2023-03-31T02:59:07;8.43;;;1.25;;
36691;SDS011;22678;52.052;4.242;2023-03-31T03:08:04;6.53;;;2.63;;
36691;SDS011;22678;52.052;4.242;2023-03-31T03:10:41;13.63;;;2.05;;
36691;SDS011;22678;52.052;4.242;2023-03-31T03:13:29;9.32;;;2.03;;
36691;SDS011;22678;52.052;4.242;2023-03-31T03:16:21;9.48;;;2.35;;
36691;SDS011;22678;52.052;4.242;2023-03-31T03:18:57;7.78;;;1.00;;
36691;SDS011;22678;52.052;4.242;2023-03-31T03:21:25;10.30;;;0.60;;
36691;SDS011;22678;52.052;4.242;2023-03-31T03:23:51;7.35;;;0.98;;
36691;SDS011;22678;52.052;4.242;2023-03-31T03:26:17;7.55;;;0.80;;
36691;SDS011;22678;52.052;4.242;2023-03-31T03:28:45;3.97;;;1.38;;
36691;SDS011;22678;52.052;4.242;2023-03-31T03:31:11;7.80;;;0.80;;
36691;SDS011;22678;52.052;4.242;2023-03-31T03:33:37;9.23;;;2.25;;
36691;SDS011;22678;52.052;4.242;2023-03-31T03:36:03;8.73;;;3.42;;
36691;SDS011;22678;52.052;4.242;2023-03-31T03:38:28;8.23;;;2.30;;
36691;SDS011;22678;52.052;4.242;2023-03-31T03:40:54;6.13;;;2.35;;
36691;SDS011;22678;52.052;4.242;2023-03-31T03:43:19;14.90;;;3.42;;
36691;SDS011;22678;52.052;4.242;2023-03-31T03:45:48;6.70;;;2.28;;
36691;SDS011;22678;52.052;4.242;2023-03-31T03:48:14;5.75;;;1.73;;
36691;SDS011;22678;52.052;4.242;2023-03-31T03:50:39;6.93;;;2.50;;
36691;SDS011;22678;52.052;4.242;2023-03-31T03:53:05;5.28;;;0.82;;
36691;SDS011;22678;52.052;4.242;2023-03-31T03:55:31;11.30;;;1.17;;
36691;SDS011;22678;52.052;4.242;2023-03-31T03:57:56;13.60;;;2.33;;
36691;SDS011;22678;52.052;4.242;2023-03-31T04:00:22;9.60;;;1.27;;
36691;SDS011;22678;52.052;4.242;2023-03-31T04:02:47;10.82;;;1.88;;
36691;SDS011;22678;52.052;4.242;2023-03-31T04:05:12;7.03;;;0.93;;
36691;SDS011;22678;52.052;4.242;2023-03-31T04:07:38;15.43;;;3.22;;
36691;SDS011;22678;52.052;4.242;2023-03-31T04:10:03;12.38;;;2.88;;
36691;SDS011;22678;52.052;4.242;2023-03-31T04:12:29;5.07;;;1.90;;
36691;SDS011;22678;52.052;4.242;2023-03-31T04:14:54;18.42;;;2.75;;
36691;SDS011;22678;52.052;4.242;2023-03-31T04:17:19;13.00;;;2.30;;
36691;SDS011;22678;52.052;4.242;2023-03-31T04:19:57;13.48;;;3.72;;
36691;SDS011;22678;52.052;4.242;2023-03-31T04:22:26;9.77;;;4.75;;
36691;SDS011;22678;52.052;4.242;2023-03-31T04:25:00;12.10;;;4.78;;
36691;SDS011;22678;52.052;4.242;2023-03-31T04:27:29;13.10;;;3.20;;
36691;SDS011;22678;52.052;4.242;2023-03-31T04:29:55;14.73;;;3.38;;
36691;SDS011;22678;52.052;4.242;2023-03-31T04:32:20;11.48;;;4.40;;
36691;SDS011;22678;52.052;4.242;2023-03-31T04:34:46;14.02;;;3.33;;
36691;SDS011;22678;52.052;4.242;2023-03-31T04:37:14;7.95;;;3.33;;
36691;SDS011;22678;52.052;4.242;2023-03-31T04:39:40;5.78;;;1.45;;
36691;SDS011;22678;52.052;4.242;2023-03-31T04:42:05;9.75;;;2.83;;
36691;SDS011;22678;52.052;4.242;2023-03-31T04:44:31;4.88;;;1.30;;
36691;SDS011;22678;52.052;4.242;2023-03-31T04:46:56;10.30;;;3.20;;
36691;SDS011;22678;52.052;4.242;2023-03-31T04:49:22;10.10;;;2.80;;
36691;SDS011;22678;52.052;4.242;2023-03-31T04:51:48;6.10;;;2.60;;
36691;SDS011;22678;52.052;4.242;2023-03-31T04:54:14;4.63;;;1.58;;
36691;SDS011;22678;52.052;4.242;2023-03-31T04:56:39;9.75;;;0.80;;
36691;SDS011;22678;52.052;4.242;2023-03-31T04:59:05;4.68;;;0.60;;
36691;SDS011;22678;52.052;4.242;2023-03-31T05:01:32;7.07;;;0.70;;
36691;SDS011;22678;52.052;4.242;2023-03-31T05:03:57;8.68;;;1.77;;
36691;SDS011;22678;52.052;4.242;2023-03-31T05:06:23;8.70;;;1.42;;
36691;SDS011;22678;52.052;4.242;2023-03-31T05:08:49;6.78;;;1.48;;
36691;SDS011;22678;52.052;4.242;2023-03-31T05:11:14;6.30;;;0.90;;
36691;SDS011;22678;52.052;4.242;2023-03-31T05:13:40;5.10;;;0.70;;
36691;SDS011;22678;52.052;4.242;2023-03-31T05:16:09;3.95;;;0.68;;
36691;SDS011;22678;52.052;4.242;2023-03-31T05:18:38;9.23;;;2.28;;
36691;SDS011;22678;52.052;4.242;2023-03-31T05:21:12;3.33;;;0.30;;
36691;SDS011;22678;52.052;4.242;2023-03-31T05:23:55;4.70;;;0.38;;
36691;SDS011;22678;52.052;4.242;2023-03-31T05:26:22;3.25;;;0.55;;
36691;SDS011;22678;52.052;4.242;2023-03-31T05:28:49;2.67;;;0.57;;
36691;SDS011;22678;52.052;4.242;2023-03-31T05:31:15;3.03;;;0.40;;
36691;SDS011;22678;52.052;4.242;2023-03-31T05:33:41;4.30;;;1.30;;
36691;SDS011;22678;52.052;4.242;2023-03-31T05:36:10;2.63;;;0.43;;
36691;SDS011;22678;52.052;4.242;2023-03-31T05:38:37;2.70;;;0.40;;
36691;SDS011;22678;52.052;4.242;2023-03-31T05:41:03;3.65;;;0.40;;
36691;SDS011;22678;52.052;4.242;2023-03-31T05:43:29;3.33;;;0.85;;
36691;SDS011;22678;52.052;4.242;2023-03-31T05:45:54;2.28;;;0.50;;
36691;SDS011;22678;52.052;4.242;2023-03-31T05:48:19;4.35;;;0.65;;
36691;SDS011;22678;52.052;4.242;2023-03-31T05:50:45;5.18;;;1.05;;
36691;SDS011;22678;52.052;4.242;2023-03-31T05:53:11;3.80;;;0.75;;
36691;SDS011;22678;52.052;4.242;2023-03-31T05:55:36;2.28;;;0.28;;
36691;SDS011;22678;52.052;4.242;2023-03-31T05:58:02;3.80;;;0.88;;
36691;SDS011;22678;52.052;4.242;2023-03-31T06:00:27;1.75;;;0.20;;
36691;SDS011;22678;52.052;4.242;2023-03-31T06:02:52;3.22;;;0.75;;
36691;SDS011;22678;52.052;4.242;2023-03-31T06:05:18;2.72;;;1.25;;
36691;SDS011;22678;52.052;4.242;2023-03-31T06:07:43;1.92;;;0.28;;
36691;SDS011;22678;52.052;4.242;2023-03-31T06:10:09;2.72;;;0.30;;
36691;SDS011;22678;52.052;4.242;2023-03-31T06:12:34;3.35;;;0.68;;
36691;SDS011;22678;52.052;4.242;2023-03-31T06:15:00;3.33;;;0.47;;
36691;SDS011;22678;52.052;4.242;2023-03-31T06:17:26;6.38;;;0.55;;
36691;SDS011;22678;52.052;4.242;2023-03-31T06:19:51;4.05;;;0.60;;
36691;SDS011;22678;52.052;4.242;2023-03-31T06:22:17;3.22;;;0.70;;
36691;SDS011;22678;52.052;4.242;2023-03-31T06:24:42;5.03;;;1.55;;
36691;SDS011;22678;52.052;4.242;2023-03-31T06:27:07;2.45;;;0.73;;
36691;SDS011;22678;52.052;4.242;2023-03-31T06:29:33;3.20;;;0.70;;
36691;SDS011;22678;52.052;4.242;2023-03-31T06:31:58;2.25;;;0.30;;
36691;SDS011;22678;52.052;4.242;2023-03-31T06:34:25;3.80;;;0.93;;
36691;SDS011;22678;52.052;4.242;2023-03-31T06:36:50;3.70;;;0.60;;
36691;SDS011;22678;52.052;4.242;2023-03-31T06:39:16;6.32;;;0.95;;
36691;SDS011;22678;52.052;4.242;2023-03-31T06:41:41;5.45;;;0.95;;
36691;SDS011;22678;52.052;4.242;2023-03-31T06:44:06;4.32;;;0.73;;
36691;SDS011;22678;52.052;4.242;2023-03-31T06:46:32;6.20;;;0.98;;
36691;SDS011;22678;52.052;4.242;2023-03-31T06:48:57;5.20;;;1.58;;
36691;SDS011;22678;52.052;4.242;2023-03-31T06:51:23;9.00;;;1.15;;
36691;SDS011;22678;52.052;4.242;2023-03-31T06:53:48;5.07;;;1.98;;
36691;SDS011;22678;52.052;4.242;2023-03-31T06:56:13;10.70;;;1.30;;
36691;SDS011;22678;52.052;4.242;2023-03-31T06:58:39;2.97;;;0.68;;
36691;SDS011;22678;52.052;4.242;2023-03-31T07:01:04;10.60;;;2.17;;
36691;SDS011;22678;52.052;4.242;2023-03-31T07:03:30;5.05;;;1.65;;
36691;SDS011;22678;52.052;4.242;2023-03-31T07:05:57;7.65;;;2.50;;
36691;SDS011;22678;52.052;4.242;2023-03-31T07:08:22;8.45;;;2.58;;
36691;SDS011;22678;52.052;4.242;2023-03-31T07:10:49;8.60;;;1.23;;
36691;SDS011;22678;52.052;4.242;2023-03-31T07:13:18;6.72;;;1.27;;
36691;SDS011;22678;52.052;4.242;2023-03-31T07:15:46;12.57;;;2.78;;
36691;SDS011;22678;52.052;4.242;2023-03-31T07:18:12;4.90;;;1.20;;
36691;SDS011;22678;52.052;4.242;2023-03-31T07:20:39;9.65;;;1.48;;
36691;SDS011;22678;52.052;4.242;2023-03-31T07:23:05;12.90;;;1.10;;
36691;SDS011;22678;52.052;4.242;2023-03-31T07:25:30;9.73;;;2.45;;
36691;SDS011;22678;52.052;4.242;2023-03-31T07:27:56;7.15;;;1.80;;
36691;SDS011;22678;52.052;4.242;2023-03-31T07:30:22;5.32;;;1.10;;
36691;SDS011;22678;52.052;4.242;2023-03-31T07:32:49;13.32;;;3.42;;
36691;SDS011;22678;52.052;4.242;2023-03-31T07:35:15;11.43;;;3.42;;
36691;SDS011;22678;52.052;4.242;2023-03-31T07:37:42;14.57;;;2.45;;
36691;SDS011;22678;52.052;4.242;2023-03-31T07:40:10;9.75;;;2.90;;
36691;SDS011;22678;52.052;4.242;2023-03-31T07:42:40;7.82;;;3.15;;
36691;SDS011;22678;52.052;4.242;2023-03-31T07:45:06;10.48;;;3.05;;
36691;SDS011;22678;52.052;4.242;2023-03-31T07:47:32;12.88;;;3.47;;
36691;SDS011;22678;52.052;4.242;2023-03-31T07:49:58;13.85;;;4.22;;
36691;SDS011;22678;52.052;4.242;2023-03-31T07:52:23;5.65;;;1.75;;
36691;SDS011;22678;52.052;4.242;2023-03-31T07:54:49;11.82;;;2.63;;
36691;SDS011;22678;52.052;4.242;2023-03-31T07:57:15;9.18;;;2.60;;
36691;SDS011;22678;52.052;4.242;2023-03-31T07:59:41;12.05;;;2.33;;
36691;SDS011;22678;52.052;4.242;2023-03-31T08:02:08;8.63;;;1.40;;
36691;SDS011;22678;52.052;4.242;2023-03-31T08:04:36;12.88;;;1.55;;
36691;SDS011;22678;52.052;4.242;2023-03-31T08:07:02;11.25;;;1.08;;
36691;SDS011;22678;52.052;4.242;2023-03-31T08:09:27;7.65;;;1.88;;
36691;SDS011;22678;52.052;4.242;2023-03-31T08:11:53;8.52;;;2.05;;
36691;SDS011;22678;52.052;4.242;2023-03-31T08:14:18;8.98;;;2.00;;
36691;SDS011;22678;52.052;4.242;2023-03-31T08:16:43;11.85;;;1.80;;
36691;SDS011;22678;52.052;4.242;2023-03-31T08:19:09;10.40;;;2.58;;
36691;SDS011;22678;52.052;4.242;2023-03-31T08:21:34;10.85;;;2.92;;
36691;SDS011;22678;52.052;4.242;2023-03-31T08:23:59;9.90;;;4.22;;
36691;SDS011;22678;52.052;4.242;2023-03-31T08:26:25;10.18;;;2.03;;
36691;SDS011;22678;52.052;4.242;2023-03-31T08:28:50;7.10;;;1.58;;
36691;SDS011;22678;52.052;4.242;2023-03-31T08:31:17;19.23;;;5.00;;
36691;SDS011;22678;52.052;4.242;2023-03-31T08:33:44;7.88;;;1.60;;
36691;SDS011;22678;52.052;4.242;2023-03-31T08:36:11;13.98;;;1.80;;
36691;SDS011;22678;52.052;4.242;2023-03-31T08:38:37;10.98;;;3.10;;
36691;SDS011;22678;52.052;4.242;2023-03-31T08:41:06;13.40;;;2.50;;
36691;SDS011;22678;52.052;4.242;2023-03-31T08:43:42;14.85;;;2.05;;
36691;SDS011;22678;52.052;4.242;2023-03-31T08:46:10;10.57;;;1.85;;
36691;SDS011;22678;52.052;4.242;2023-03-31T08:48:47;10.07;;;1.45;;
36691;SDS011;22678;52.052;4.242;2023-03-31T08:54:01;12.50;;;1.80;;
36691;SDS011;22678;52.052;4.242;2023-03-31T08:56:33;14.63;;;4.20;;
36691;SDS011;22678;52.052;4.242;2023-03-31T08:59:03;12.00;;;3.33;;
36691;SDS011;22678;52.052;4.242;2023-03-31T09:04:47;14.27;;;2.60;;
36691;SDS011;22678;52.052;4.242;2023-03-31T09:07:13;8.73;;;2.65;;
36691;SDS011;22678;52.052;4.242;2023-03-31T09:09:51;14.95;;;3.33;;
36691;SDS011;22678;52.052;4.242;2023-03-31T09:15:16;17.33;;;2.40;;
36691;SDS011;22678;52.052;4.242;2023-03-31T09:17:51;18.55;;;4.85;;
36691;SDS011;22678;52.052;4.242;2023-03-31T09:20:21;16.75;;;1.17;;
36691;SDS011;22678;52.052;4.242;2023-03-31T09:23:17;11.13;;;1.50;;
36691;SDS011;22678;52.052;4.242;2023-03-31T09:25:46;11.27;;;1.90;;
36691;SDS011;22678;52.052;4.242;2023-03-31T09:28:17;11.65;;;1.60;;
36691;SDS011;22678;52.052;4.242;2023-03-31T09:30:44;11.23;;;3.10;;
36691;SDS011;22678;52.052;4.242;2023-03-31T09:33:14;10.55;;;3.28;;
36691;SDS011;22678;52.052;4.242;2023-03-31T09:35:40;10.25;;;2.17;;
36691;SDS011;22678;52.052;4.242;2023-03-31T09:38:08;16.95;;;1.73;;
36691;SDS011;22678;52.052;4.242;2023-03-31T09:40:35;9.10;;;2.58;;
36691;SDS011;22678;52.052;4.242;2023-03-31T09:43:03;10.38;;;2.40;;
36691;SDS011;22678;52.052;4.242;2023-03-31T09:45:32;17.80;;;3.42;;
36691;SDS011;22678;52.052;4.242;2023-03-31T09:48:11;9.73;;;2.33;;
36691;SDS011;22678;52.052;4.242;2023-03-31T09:50:43;11.20;;;3.88;;
36691;SDS011;22678;52.052;4.242;2023-03-31T09:56:00;15.35;;;3.53;;
36691;SDS011;22678;52.052;4.242;2023-03-31T09:58:27;19.70;;;2.42;;
36691;SDS011;22678;52.052;4.242;2023-03-31T10:01:02;10.57;;;2.05;;
36691;SDS011;22678;52.052;4.242;2023-03-31T10:03:30;14.73;;;2.58;;
36691;SDS011;22678;52.052;4.242;2023-03-31T10:06:00;18.08;;;2.95;;
36691;SDS011;22678;52.052;4.242;2023-03-31T10:08:39;13.88;;;1.75;;
36691;SDS011;22678;52.052;4.242;2023-03-31T10:11:10;11.10;;;2.65;;
36691;SDS011;22678;52.052;4.242;2023-03-31T10:13:41;10.90;;;2.97;;
36691;SDS011;22678;52.052;4.242;2023-03-31T10:16:21;12.10;;;2.17;;
36691;SDS011;22678;52.052;4.242;2023-03-31T10:19:17;8.65;;;1.38;;
36691;SDS011;22678;52.052;4.242;2023-03-31T10:21:47;10.48;;;1.23;;
36691;SDS011;22678;52.052;4.242;2023-03-31T10:24:19;8.43;;;1.38;;
36691;SDS011;22678;52.052;4.242;2023-03-31T10:26:48;7.38;;;1.02;;
36691;SDS011;22678;52.052;4.242;2023-03-31T10:29:18;10.88;;;2.10;;
36691;SDS011;22678;52.052;4.242;2023-03-31T10:31:49;11.18;;;1.02;;
36691;SDS011;22678;52.052;4.242;2023-03-31T10:34:15;14.85;;;1.17;;
36691;SDS011;22678;52.052;4.242;2023-03-31T10:36:45;12.52;;;1.92;;
36691;SDS011;22678;52.052;4.242;2023-03-31T10:39:14;9.50;;;2.97;;
36691;SDS011;22678;52.052;4.242;2023-03-31T10:41:41;7.53;;;0.90;;
36691;SDS011;22678;52.052;4.242;2023-03-31T10:44:29;5.70;;;1.30;;
36691;SDS011;22678;52.052;4.242;2023-03-31T10:47:02;23.02;;;2.05;;
36691;SDS011;22678;52.052;4.242;2023-03-31T10:49:29;6.05;;;0.77;;
36691;SDS011;22678;52.052;4.242;2023-03-31T10:52:02;6.97;;;0.50;;
36691;SDS011;22678;52.052;4.242;2023-03-31T10:54:27;4.07;;;0.85;;
36691;SDS011;22678;52.052;4.242;2023-03-31T10:56:54;8.63;;;1.77;;
36691;SDS011;22678;52.052;4.242;2023-03-31T10:59:31;7.45;;;1.80;;
36691;SDS011;22678;52.052;4.242;2023-03-31T11:11:07;9.10;;;1.30;;
36691;SDS011;22678;52.052;4.242;2023-03-31T11:19:01;14.70;;;2.58;;
36691;SDS011;22678;52.052;4.242;2023-03-31T11:21:38;5.15;;;1.52;;
36691;SDS011;22678;52.052;4.242;2023-03-31T11:41:01;5.63;;;0.80;;
36691;SDS011;22678;52.052;4.242;2023-03-31T11:43:32;2.75;;;0.93;;
36691;SDS011;22678;52.052;4.242;2023-03-31T11:46:15;3.35;;;0.55;;
36691;SDS011;22678;52.052;4.242;2023-03-31T11:48:56;3.58;;;0.63;;
36691;SDS011;22678;52.052;4.242;2023-03-31T11:53:55;2.85;;;0.82;;
36691;SDS011;22678;52.052;4.242;2023-03-31T11:56:27;4.25;;;0.40;;
36691;SDS011;22678;52.052;4.242;2023-03-31T11:58:59;6.15;;;0.80;;
36691;SDS011;22678;52.052;4.242;2023-03-31T12:01:28;4.93;;;1.05;;
36691;SDS011;22678;52.052;4.242;2023-03-31T12:04:05;5.55;;;1.20;;
36691;SDS011;22678;52.052;4.242;2023-03-31T12:06:40;6.10;;;0.60;;
36691;SDS011;22678;52.052;4.242;2023-03-31T12:09:16;4.32;;;0.75;;
36691;SDS011;22678;52.052;4.242;2023-03-31T12:11:49;3.63;;;0.85;;
36691;SDS011;22678;52.052;4.242;2023-03-31T12:17:38;4.88;;;1.80;;
36691;SDS011;22678;52.052;4.242;2023-03-31T12:20:13;4.07;;;0.70;;
36691;SDS011;22678;52.052;4.242;2023-03-31T12:22:48;6.65;;;0.85;;
36691;SDS011;22678;52.052;4.242;2023-03-31T12:25:14;10.15;;;1.73;;
36691;SDS011;22678;52.052;4.242;2023-03-31T12:27:44;7.80;;;0.63;;
36691;SDS011;22678;52.052;4.242;2023-03-31T12:33:00;5.75;;;0.90;;
36691;SDS011;22678;52.052;4.242;2023-03-31T12:41:16;5.15;;;0.73;;
36691;SDS011;22678;52.052;4.242;2023-03-31T12:46:35;4.25;;;0.75;;
36691;SDS011;22678;52.052;4.242;2023-03-31T12:57:21;2.45;;;0.60;;
36691;SDS011;22678;52.052;4.242;2023-03-31T13:02:36;13.20;;;1.48;;
36691;SDS011;22678;52.052;4.242;2023-03-31T13:08:03;2.28;;;0.52;;
36691;SDS011;22678;52.052;4.242;2023-03-31T13:10:29;7.75;;;1.10;;
36691;SDS011;22678;52.052;4.242;2023-03-31T13:13:03;7.57;;;1.00;;
36691;SDS011;22678;52.052;4.242;2023-03-31T13:15:29;3.90;;;0.35;;
36691;SDS011;22678;52.052;4.242;2023-03-31T13:17:59;5.45;;;0.68;;
36691;SDS011;22678;52.052;4.242;2023-03-31T13:20:31;7.40;;;2.10;;
36691;SDS011;22678;52.052;4.242;2023-03-31T13:23:04;6.28;;;0.30;;
36691;SDS011;22678;52.052;4.242;2023-03-31T13:25:42;3.85;;;0.28;;
36691;SDS011;22678;52.052;4.242;2023-03-31T13:28:54;3.35;;;0.57;;
36691;SDS011;22678;52.052;4.242;2023-03-31T13:31:07;5.72;;;0.52;;
36691;SDS011;22678;52.052;4.242;2023-03-31T13:33:40;3.05;;;0.40;;
36691;SDS011;22678;52.052;4.242;2023-03-31T13:47:54;4.05;;;0.77;;
36691;SDS011;22678;52.052;4.242;2023-03-31T13:53:28;4.65;;;0.30;;
36691;SDS011;22678;52.052;4.242;2023-03-31T14:04:29;5.78;;;0.82;;
36691;SDS011;22678;52.052;4.242;2023-03-31T14:07:08;6.30;;;0.65;;
36691;SDS011;22678;52.052;4.242;2023-03-31T14:09:39;6.22;;;2.42;;
36691;SDS011;22678;52.052;4.242;2023-03-31T14:14:45;7.38;;;1.77;;
36691;SDS011;22678;52.052;4.242;2023-03-31T14:17:11;3.75;;;0.40;;
36691;SDS011;22678;52.052;4.242;2023-03-31T14:19:52;2.58;;;0.38;;
36691;SDS011;22678;52.052;4.242;2023-03-31T14:22:54;5.03;;;1.08;;
36691;SDS011;22678;52.052;4.242;2023-03-31T14:31:06;7.43;;;1.67;;
36691;SDS011;22678;52.052;4.242;2023-03-31T14:36:57;3.30;;;1.30;;
36691;SDS011;22678;52.052;4.242;2023-03-31T14:39:30;3.88;;;1.58;;
36691;SDS011;22678;52.052;4.242;2023-03-31T14:42:14;8.70;;;1.85;;
36691;SDS011;22678;52.052;4.242;2023-03-31T14:44:41;3.53;;;1.33;;
36691;SDS011;22678;52.052;4.242;2023-03-31T14:47:12;11.82;;;1.55;;
36691;SDS011;22678;52.052;4.242;2023-03-31T14:49:39;6.68;;;1.60;;
36691;SDS011;22678;52.052;4.242;2023-03-31T14:52:18;3.28;;;1.17;;
36691;SDS011;22678;52.052;4.242;2023-03-31T14:54:47;5.43;;;1.75;;
36691;SDS011;22678;52.052;4.242;2023-03-31T14:57:16;9.25;;;2.33;;
36691;SDS011;22678;52.052;4.242;2023-03-31T14:59:48;7.95;;;0.60;;
36691;SDS011;22678;52.052;4.242;2023-03-31T15:02:18;3.30;;;1.45;;
36691;SDS011;22678;52.052;4.242;2023-03-31T15:04:53;3.95;;;1.83;;
36691;SDS011;22678;52.052;4.242;2023-03-31T15:07:20;3.95;;;1.08;;
36691;SDS011;22678;52.052;4.242;2023-03-31T15:09:48;5.30;;;0.60;;
36691;SDS011;22678;52.052;4.242;2023-03-31T15:12:15;7.03;;;0.88;;
36691;SDS011;22678;52.052;4.242;2023-03-31T15:14:53;7.40;;;1.80;;
36691;SDS011;22678;52.052;4.242;2023-03-31T15:17:35;5.47;;;0.57;;
36691;SDS011;22678;52.052;4.242;2023-03-31T15:23:03;4.60;;;0.98;;
36691;SDS011;22678;52.052;4.242;2023-03-31T15:25:42;3.88;;;0.50;;
36691;SDS011;22678;52.052;4.242;2023-03-31T15:28:12;7.20;;;0.70;;
36691;SDS011;22678;52.052;4.242;2023-03-31T15:30:41;5.93;;;2.22;;
36691;SDS011;22678;52.052;4.242;2023-03-31T15:33:14;3.63;;;0.40;;
36691;SDS011;22678;52.052;4.242;2023-03-31T15:35:43;4.43;;;0.60;;
36691;SDS011;22678;52.052;4.242;2023-03-31T15:38:09;6.65;;;1.55;;
36691;SDS011;22678;52.052;4.242;2023-03-31T15:40:39;9.05;;;0.77;;
36691;SDS011;22678;52.052;4.242;2023-03-31T15:43:17;5.78;;;0.98;;
36691;SDS011;22678;52.052;4.242;2023-03-31T15:46:17;2.92;;;0.98;;
36691;SDS011;22678;52.052;4.242;2023-03-31T15:49:19;4.45;;;0.90;;
36691;SDS011;22678;52.052;4.242;2023-03-31T15:51:46;2.42;;;0.55;;
36691;SDS011;22678;52.052;4.242;2023-03-31T15:54:28;7.75;;;1.75;;
36691;SDS011;22678;52.052;4.242;2023-03-31T15:56:55;3.40;;;1.35;;
36691;SDS011;22678;52.052;4.242;2023-03-31T15:59:24;5.07;;;0.75;;
36691;SDS011;22678;52.052;4.242;2023-03-31T16:01:51;3.85;;;0.60;;
36691;SDS011;22678;52.052;4.242;2023-03-31T16:04:19;4.90;;;0.63;;
36691;SDS011;22678;52.052;4.242;2023-03-31T16:06:49;3.33;;;0.52;;
36691;SDS011;22678;52.052;4.242;2023-03-31T16:14:30;4.63;;;0.50;;
36691;SDS011;22678;52.052;4.242;2023-03-31T16:16:59;5.43;;;0.82;;
36691;SDS011;22678;52.052;4.242;2023-03-31T16:19:29;4.45;;;0.70;;
36691;SDS011;22678;52.052;4.242;2023-03-31T16:22:02;4.15;;;0.75;;
36691;SDS011;22678;52.052;4.242;2023-03-31T16:24:30;9.63;;;1.45;;
36691;SDS011;22678;52.052;4.242;2023-03-31T16:27:01;7.30;;;2.53;;
36691;SDS011;22678;52.052;4.242;2023-03-31T16:29:31;5.00;;;0.52;;
36691;SDS011;22678;52.052;4.242;2023-03-31T16:32:16;7.88;;;0.90;;
36691;SDS011;22678;52.052;4.242;2023-03-31T16:34:55;9.73;;;0.95;;
36691;SDS011;22678;52.052;4.242;2023-03-31T16:37:25;4.90;;;0.82;;
36691;SDS011;22678;52.052;4.242;2023-03-31T16:39:51;3.72;;;0.32;;
36691;SDS011;22678;52.052;4.242;2023-03-31T16:42:17;5.50;;;0.93;;
36691;SDS011;22678;52.052;4.242;2023-03-31T16:44:43;3.80;;;1.05;;
36691;SDS011;22678;52.052;4.242;2023-03-31T16:47:10;3.90;;;0.50;;
36691;SDS011;22678;52.052;4.242;2023-03-31T16:49:36;7.68;;;2.58;;
36691;SDS011;22678;52.052;4.242;2023-03-31T16:52:01;4.45;;;1.08;;
36691;SDS011;22678;52.052;4.242;2023-03-31T16:54:26;4.63;;;0.68;;
36691;SDS011;22678;52.052;4.242;2023-03-31T16:56:52;6.43;;;1.52;;
36691;SDS011;22678;52.052;4.242;2023-03-31T16:59:17;7.78;;;1.48;;
36691;SDS011;22678;52.052;4.242;2023-03-31T17:01:42;17.70;;;2.00;;
36691;SDS011;22678;52.052;4.242;2023-03-31T17:04:08;22.38;;;3.45;;
36691;SDS011;22678;52.052;4.242;2023-03-31T17:06:33;17.50;;;3.22;;
36691;SDS011;22678;52.052;4.242;2023-03-31T17:08:58;22.02;;;4.40;;
36691;SDS011;22678;52.052;4.242;2023-03-31T17:11:25;20.52;;;4.45;;
36691;SDS011;22678;52.052;4.242;2023-03-31T17:13:51;24.48;;;7.63;;
36691;SDS011;22678;52.052;4.242;2023-03-31T17:16:18;25.35;;;4.75;;
36691;SDS011;22678;52.052;4.242;2023-03-31T17:18:45;30.17;;;7.43;;
36691;SDS011;22678;52.052;4.242;2023-03-31T17:21:11;24.15;;;6.60;;
36691;SDS011;22678;52.052;4.242;2023-03-31T17:23:38;22.08;;;2.97;;
36691;SDS011;22678;52.052;4.242;2023-03-31T17:26:05;24.05;;;4.75;;
36691;SDS011;22678;52.052;4.242;2023-03-31T17:28:33;32.42;;;5.40;;
36691;SDS011;22678;52.052;4.242;2023-03-31T17:30:59;19.10;;;3.72;;
36691;SDS011;22678;52.052;4.242;2023-03-31T17:33:25;31.75;;;6.93;;
36691;SDS011;22678;52.052;4.242;2023-03-31T17:35:57;18.67;;;3.92;;